createdAt,value
2022-12-17T00:00:41.771Z,97154.34
2022-12-17T00:03:29.844Z,97144.97
2022-12-17T00:06:15.243Z,97145.88
2022-12-17T00:09:00.552Z,97157.97
2022-12-17T00:11:45.473Z,97158.78
2022-12-17T00:14:47.108Z,97159.69
2022-12-17T00:17:43.025Z,97167.44
2022-12-17T00:20:28.307Z,97165.75
2022-12-17T00:23:21.454Z,97182.88
2022-12-17T00:26:14.868Z,97187.13
2022-12-17T00:29:00.055Z,97185.31
2022-12-17T00:31:46.523Z,97192.31
2022-12-17T00:34:31.925Z,97182.00
2022-12-17T00:37:17.557Z,97190.69
2022-12-17T00:40:02.744Z,97188.16
2022-12-17T00:42:48.227Z,97183.84
2022-12-17T00:45:33.081Z,97195.06
2022-12-17T00:48:17.883Z,97196.88
2022-12-17T00:51:02.773Z,97211.44
2022-12-17T00:53:47.568Z,97209.69
2022-12-17T00:56:33.106Z,97211.47
2022-12-17T00:59:17.968Z,97211.47
2022-12-17T01:02:06.428Z,97222.69
2022-12-17T01:04:52.211Z,97221.03
2022-12-17T01:07:38.616Z,97213.38
2022-12-17T01:10:23.886Z,97230.59
2022-12-17T01:13:09.161Z,97234.84
2022-12-17T01:15:54.866Z,97234.94
2022-12-17T01:18:42.057Z,97233.16
2022-12-17T01:21:26.737Z,97246.16
2022-12-17T01:24:11.529Z,97252.13
2022-12-17T01:26:56.744Z,97259.06
2022-12-17T01:29:41.732Z,97257.31
2022-12-17T01:32:27.174Z,97262.41
2022-12-17T01:35:11.864Z,97266.72
2022-12-17T01:37:56.962Z,97268.44
2022-12-17T01:40:41.992Z,97271.91
2022-12-17T01:43:31.168Z,97276.91
2022-12-17T01:46:17.119Z,97276.97
2022-12-17T01:49:06.370Z,97281.28
2022-12-17T01:51:52.697Z,97283.88
2022-12-17T01:54:38.000Z,97290.81
2022-12-17T01:57:25.327Z,97290.03
2022-12-17T02:00:21.416Z,97296.91
2022-12-17T02:03:06.825Z,97294.25
2022-12-17T02:06:02.033Z,97298.75
2022-12-17T02:08:46.844Z,97297.06
2022-12-17T02:11:47.094Z,97306.47
2022-12-17T02:14:45.014Z,97308.25
2022-12-17T02:17:36.587Z,97316.94
2022-12-17T02:20:45.445Z,97322.91
2022-12-17T02:24:11.122Z,97325.44
2022-12-17T02:27:14.448Z,97316.06
2022-12-17T02:30:07.385Z,97327.28
2022-12-17T02:32:56.255Z,97328.06
2022-12-17T02:35:46.183Z,97329.81
2022-12-17T02:38:49.155Z,97329.81
2022-12-17T02:41:41.023Z,97345.22
2022-12-17T02:44:28.876Z,97346.09
2022-12-17T02:47:16.287Z,97350.28
2022-12-17T02:50:01.637Z,97351.09
2022-12-17T02:52:46.926Z,97347.78
2022-12-17T02:55:31.840Z,97349.53
2022-12-17T02:58:17.213Z,97353.84
2022-12-17T03:01:02.151Z,97354.75
2022-12-17T03:03:57.765Z,97359.94
2022-12-17T03:06:42.588Z,97347.94
2022-12-17T03:13:21.556Z,97363.69
2022-12-17T03:16:06.441Z,97369.00
2022-12-17T03:18:51.163Z,97374.25
2022-12-17T03:21:36.971Z,97376.91
2022-12-17T03:24:22.162Z,97376.25
2022-12-17T03:27:07.032Z,97378.03
2022-12-17T03:29:52.094Z,97381.56
2022-12-17T03:32:36.971Z,97388.41
2022-12-17T03:35:22.510Z,97392.75
2022-12-17T03:38:07.269Z,97396.28
2022-12-17T03:40:52.237Z,97402.41
2022-12-17T03:43:37.400Z,97394.69
2022-12-17T03:46:22.625Z,97399.09
2022-12-17T03:49:10.159Z,97401.78
2022-12-17T03:51:54.883Z,97417.31
2022-12-17T03:54:39.674Z,97419.09
2022-12-17T03:57:24.426Z,97415.59
2022-12-17T04:00:12.672Z,97426.75
2022-12-17T04:02:58.280Z,97431.13
2022-12-17T04:05:43.582Z,97439.69
2022-12-17T04:08:28.486Z,97451.63
2022-12-17T04:11:13.820Z,97449.03
2022-12-17T04:13:59.064Z,97447.28
2022-12-17T04:16:43.899Z,97444.66
2022-12-17T04:19:29.978Z,97443.00
2022-12-17T04:22:17.422Z,97446.44
2022-12-17T04:25:02.848Z,97448.19
2022-12-17T04:27:48.228Z,97449.97
2022-12-17T04:30:33.427Z,97459.50
2022-12-17T04:33:18.560Z,97461.31
2022-12-17T04:36:06.708Z,97463.94
2022-12-17T04:38:51.965Z,97471.72
2022-12-17T04:41:48.032Z,97474.31
2022-12-17T04:44:32.935Z,97472.63
2022-12-17T04:47:17.737Z,97482.03
2022-12-17T04:50:03.117Z,97482.09
2022-12-17T04:53:04.667Z,97489.78
2022-12-17T04:55:49.878Z,97487.25
2022-12-17T04:58:34.597Z,97492.34
2022-12-17T05:01:19.561Z,97497.50
2022-12-17T05:04:04.649Z,97504.34
2022-12-17T05:06:49.852Z,97501.75
2022-12-17T05:09:34.764Z,97512.91
2022-12-17T05:12:19.743Z,97513.75
2022-12-17T05:15:05.089Z,97518.06
2022-12-17T05:17:50.325Z,97520.59
2022-12-17T05:20:35.602Z,97518.91
2022-12-17T05:23:24.977Z,97521.47
2022-12-17T05:26:21.585Z,97532.59
2022-12-17T05:29:07.256Z,97535.16
2022-12-17T05:35:34.707Z,97547.16
2022-12-17T05:38:30.296Z,97548.88
2022-12-17T05:42:13.860Z,97554.03
2022-12-17T05:44:52.631Z,97572.81
2022-12-17T05:47:37.452Z,97580.53
2022-12-17T05:50:28.869Z,97577.94
2022-12-17T05:53:52.456Z,97587.34
2022-12-17T06:00:19.177Z,97586.47
2022-12-17T06:03:04.679Z,97588.19
2022-12-17T06:05:49.732Z,97590.78
2022-12-17T06:12:19.922Z,97597.53
2022-12-17T06:15:04.735Z,97605.25
2022-12-17T06:17:49.566Z,97611.22
2022-12-17T06:20:34.794Z,97612.03
2022-12-17T06:23:29.373Z,97613.78
2022-12-17T06:26:41.312Z,97606.91
2022-12-17T06:29:36.157Z,97613.78
2022-12-17T06:32:32.724Z,97612.81
2022-12-17T06:35:32.188Z,97617.94
2022-12-17T06:38:26.601Z,97625.59
2022-12-17T06:41:11.889Z,97626.44
2022-12-17T06:44:01.482Z,97629.88
2022-12-17T06:46:46.420Z,97633.28
2022-12-17T06:49:31.547Z,97636.19
2022-12-17T06:52:16.540Z,97645.59
2022-12-17T06:55:01.353Z,97650.75
2022-12-17T06:57:50.153Z,97662.66
2022-12-17T07:00:35.947Z,97673.69
2022-12-17T07:03:22.345Z,97670.16
2022-12-17T07:06:07.515Z,97678.63
2022-12-17T07:08:53.052Z,97682.16
2022-12-17T07:11:39.467Z,97679.72
2022-12-17T07:14:24.567Z,97683.22
2022-12-17T07:17:09.392Z,97686.72
2022-12-17T07:19:54.098Z,97689.31
2022-12-17T07:22:38.967Z,97690.19
2022-12-17T07:25:24.403Z,97699.59
2022-12-17T07:28:15.403Z,97702.13
2022-12-17T07:31:00.881Z,97702.91
2022-12-17T07:33:45.703Z,97701.94
2022-12-17T07:36:30.928Z,97716.50
2022-12-17T07:39:15.680Z,97716.47
2022-12-17T07:42:00.543Z,97718.13
2022-12-17T07:44:45.279Z,97732.72
2022-12-17T07:47:30.097Z,97727.63
2022-12-17T07:50:14.736Z,97731.16
2022-12-17T07:52:59.594Z,97741.47
2022-12-17T07:55:44.887Z,97745.78
2022-12-17T07:58:30.161Z,97738.00
2022-12-17T08:01:19.244Z,97747.41
2022-12-17T08:04:04.928Z,97746.50
2022-12-17T08:06:49.809Z,97745.63
2022-12-17T08:09:34.551Z,97745.53
2022-12-17T08:12:19.547Z,97754.06
2022-12-17T08:15:04.326Z,97758.31
2022-12-17T08:17:49.163Z,97761.53
2022-12-17T08:20:34.478Z,97764.59
2022-12-17T08:23:21.335Z,97763.25
2022-12-17T08:26:06.646Z,97765.97
2022-12-17T08:28:51.829Z,97762.22
2022-12-17T08:31:37.463Z,97766.94
2022-12-17T08:34:22.966Z,97775.13
2022-12-17T08:37:07.694Z,97776.66
2022-12-17T08:39:52.433Z,97781.31
2022-12-17T08:42:37.380Z,97782.31
2022-12-17T08:45:22.671Z,97789.13
2022-12-17T08:48:08.072Z,97781.31
2022-12-17T08:50:52.836Z,97789.63
2022-12-17T08:53:38.327Z,97791.38
2022-12-17T08:56:52.580Z,97791.09
2022-12-17T08:59:37.495Z,97789.19
2022-12-17T09:02:22.928Z,97791.50
2022-12-17T09:05:08.033Z,97788.84
2022-12-17T09:07:52.842Z,97787.81
2022-12-17T09:10:37.590Z,97800.50
2022-12-17T09:13:22.879Z,97800.91
2022-12-17T09:16:12.773Z,97805.13
2022-12-17T09:18:58.144Z,97803.88
2022-12-17T09:21:43.559Z,97813.50
2022-12-17T09:24:28.906Z,97807.16
2022-12-17T09:27:13.674Z,97801.31
2022-12-17T09:29:58.386Z,97807.34
2022-12-17T09:32:43.642Z,97807.81
2022-12-17T09:35:29.022Z,97816.63
2022-12-17T09:38:14.882Z,97813.03
2022-12-17T09:41:05.210Z,97808.50
2022-12-17T09:44:11.428Z,97819.53
2022-12-17T09:47:17.564Z,97835.31
2022-12-17T09:50:02.767Z,97827.56
2022-12-17T09:52:53.030Z,97829.09
2022-12-17T09:55:52.055Z,97824.59
2022-12-17T09:58:48.516Z,97820.22
2022-12-17T10:01:43.072Z,97825.59
2022-12-17T10:04:37.832Z,97832.06
2022-12-17T10:07:30.814Z,97840.16
2022-12-17T10:10:18.751Z,97843.09
2022-12-17T10:13:03.501Z,97843.22
2022-12-17T10:15:48.269Z,97847.72
2022-12-17T10:18:37.637Z,97852.53
2022-12-17T10:21:26.015Z,97862.69
2022-12-17T10:24:23.776Z,97865.69
2022-12-17T10:27:08.506Z,97868.66
2022-12-17T10:29:53.844Z,97874.28
2022-12-17T10:32:42.552Z,97877.13
2022-12-17T10:35:41.680Z,97874.28
2022-12-17T10:38:39.022Z,97874.53
2022-12-17T10:41:24.390Z,97879.69
2022-12-17T10:44:09.253Z,97872.81
2022-12-17T10:46:54.312Z,97882.84
2022-12-17T10:49:43.629Z,97882.09
2022-12-17T10:52:46.361Z,97886.97
2022-12-17T11:10:09.613Z,97882.44
2022-12-17T11:16:44.044Z,97876.56
2022-12-17T11:19:32.011Z,97889.66
2022-12-17T11:37:44.513Z,97910.06
2022-12-17T11:40:39.829Z,97910.97
2022-12-17T11:43:58.281Z,97916.25
2022-12-17T11:47:14.404Z,97920.88
2022-12-17T11:50:34.558Z,97919.25
2022-12-17T11:54:02.621Z,97928.16
2022-12-17T12:08:45.880Z,97924.47
2022-12-17T12:11:53.729Z,97914.22
2022-12-17T12:22:51.616Z,97910.31
2022-12-17T12:26:14.511Z,97903.97
2022-12-17T12:29:24.878Z,97900.84
2022-12-17T12:32:47.406Z,97905.88
2022-12-17T12:35:39.853Z,97908.53
2022-12-17T12:38:35.190Z,97913.44
2022-12-17T12:41:32.950Z,97904.63
2022-12-17T12:44:24.995Z,97911.06
2022-12-17T12:47:20.169Z,97907.47
2022-12-17T12:50:20.872Z,97907.88
2022-12-17T12:53:06.744Z,97909.03
2022-12-17T12:55:59.718Z,97911.25
2022-12-17T12:58:52.635Z,97914.00
2022-12-17T13:01:38.565Z,97914.34
2022-12-17T13:04:55.739Z,97917.78
2022-12-17T13:07:28.463Z,97926.56
2022-12-17T13:09:59.418Z,97932.28
2022-12-17T13:12:40.517Z,97925.81
2022-12-17T13:15:06.975Z,97933.75
2022-12-17T13:17:43.259Z,97930.53
2022-12-17T13:20:29.343Z,97931.47
2022-12-17T13:23:15.903Z,97932.63
2022-12-17T13:25:42.983Z,97936.19
2022-12-17T13:28:30.707Z,97943.59
2022-12-17T13:31:06.447Z,97948.38
2022-12-17T13:33:41.921Z,97957.38
2022-12-17T13:36:20.380Z,97963.09
2022-12-17T13:39:02.087Z,97964.44
2022-12-17T13:41:31.206Z,97970.66
2022-12-17T13:44:02.171Z,97968.16
2022-12-17T13:46:36.425Z,97966.66
2022-12-17T13:49:06.016Z,97976.31
2022-12-17T13:52:11.608Z,97983.28
2022-12-17T13:54:38.923Z,97981.66
2022-12-17T13:57:17.331Z,97984.31
2022-12-17T13:59:58.588Z,97981.75
2022-12-17T14:02:30.810Z,97989.47
2022-12-17T14:05:04.176Z,97992.06
2022-12-17T14:07:38.054Z,97998.13
2022-12-17T14:10:05.992Z,97997.28
2022-12-17T14:12:35.261Z,98002.44
2022-12-17T14:15:17.504Z,98006.78
2022-12-17T14:17:47.089Z,98010.19
2022-12-17T14:20:16.838Z,98015.34
2022-12-17T14:22:51.902Z,98009.34
2022-12-17T14:25:27.036Z,98016.25
2022-12-17T14:28:02.307Z,98019.66
2022-12-17T14:30:31.672Z,98017.94
2022-12-17T14:32:58.967Z,98020.53
2022-12-17T14:35:34.210Z,98027.34
2022-12-17T14:38:01.035Z,98025.63
2022-12-17T14:40:27.685Z,98034.19
2022-12-17T14:42:59.685Z,98034.13
2022-12-17T14:45:28.204Z,98034.06
2022-12-17T14:47:59.964Z,98048.63
2022-12-17T14:50:34.923Z,98046.00
2022-12-17T14:53:22.904Z,98051.94
2022-12-17T14:55:56.003Z,98044.97
2022-12-17T14:58:23.500Z,98046.59
2022-12-17T15:01:04.726Z,98049.22
2022-12-17T15:03:33.940Z,98054.31
2022-12-17T15:06:07.142Z,98057.63
2022-12-17T15:08:40.189Z,98054.09
2022-12-17T15:11:07.713Z,98058.28
2022-12-17T15:13:34.217Z,98062.41
2022-12-17T15:16:00.778Z,98071.63
2022-12-17T15:18:27.359Z,98072.53
2022-12-17T15:20:53.919Z,98074.22
2022-12-17T15:23:23.535Z,98085.44
2022-12-17T15:25:52.584Z,98086.28
2022-12-17T15:28:20.266Z,98085.31
2022-12-17T15:30:49.000Z,98092.03
2022-12-17T15:33:16.145Z,98094.22
2022-12-17T15:35:43.901Z,98098.31
2022-12-17T15:38:12.206Z,98100.09
2022-12-17T15:40:39.602Z,98091.41
2022-12-17T15:43:11.771Z,98097.09
2022-12-17T15:45:39.019Z,98107.28
2022-12-17T15:48:06.007Z,98103.75
2022-12-17T15:50:32.589Z,98105.34
2022-12-17T15:52:59.151Z,98117.50
2022-12-17T15:55:25.766Z,98105.34
2022-12-17T15:57:52.323Z,98114.84
2022-12-17T16:00:19.055Z,98115.81
2022-12-17T16:02:46.046Z,98117.28
2022-12-17T16:05:12.902Z,98123.16
2022-12-17T16:07:39.472Z,98119.41
2022-12-17T16:10:06.933Z,98126.78
2022-12-17T16:12:33.616Z,98123.19
2022-12-17T16:15:00.142Z,98125.66
2022-12-17T16:17:26.908Z,98127.31
2022-12-17T16:19:53.382Z,98130.75
2022-12-17T16:22:19.858Z,98130.75
2022-12-17T16:24:46.591Z,98137.47
2022-12-17T16:27:14.016Z,98141.75
2022-12-17T16:29:40.572Z,98136.56
2022-12-17T16:32:07.130Z,98136.69
2022-12-17T16:34:33.660Z,98136.88
2022-12-17T16:37:01.539Z,98140.38
2022-12-17T16:39:28.334Z,98136.41
2022-12-17T16:41:55.122Z,98140.16
2022-12-17T16:44:21.608Z,98151.41
2022-12-17T16:46:48.208Z,98146.47
2022-12-17T16:49:18.085Z,98141.41
2022-12-17T16:51:45.568Z,98145.94
2022-12-17T16:54:15.666Z,98147.75
2022-12-17T16:56:43.400Z,98141.88
2022-12-17T16:59:14.292Z,98141.81
2022-12-17T17:01:44.795Z,98148.75
2022-12-17T17:04:13.279Z,98153.94
2022-12-17T17:06:45.870Z,98155.75
2022-12-17T17:09:13.339Z,98164.28
2022-12-17T17:11:40.009Z,98154.16
2022-12-17T17:14:07.576Z,98156.72
2022-12-17T17:16:34.880Z,98149.06
2022-12-17T17:19:02.334Z,98150.88
2022-12-17T17:21:34.321Z,98154.47
2022-12-17T17:24:03.926Z,98155.50
2022-12-17T17:26:32.553Z,98164.16
2022-12-17T17:28:59.865Z,98167.69
2022-12-17T17:32:01.085Z,98165.97
2022-12-17T17:34:15.211Z,98165.22
2022-12-17T17:36:42.335Z,98167.06
2022-12-17T17:39:08.995Z,98168.88
2022-12-17T17:41:37.237Z,98167.25
2022-12-17T17:44:13.051Z,98170.72
2022-12-17T17:46:40.207Z,98180.16
2022-12-17T17:49:08.821Z,98180.31
2022-12-17T17:54:28.545Z,98181.16
2022-12-17T17:56:55.139Z,98177.75
2022-12-17T17:59:29.155Z,98187.25
2022-12-17T18:02:00.238Z,98183.81
2022-12-17T18:04:26.925Z,98191.56
2022-12-17T18:07:23.718Z,98191.53
2022-12-17T18:09:39.919Z,98200.16
2022-12-17T18:12:26.570Z,98190.75
2022-12-17T18:15:13.268Z,98196.75
2022-12-17T18:17:39.771Z,98204.38
2022-12-17T18:20:06.862Z,98205.19
2022-12-17T18:22:33.340Z,98204.28
2022-12-17T18:24:59.819Z,98204.31
2022-12-17T18:27:26.304Z,98206.84
2022-12-17T18:29:52.811Z,98211.09
2022-12-17T18:32:19.306Z,98214.56
2022-12-17T18:34:45.810Z,98209.34
2022-12-17T18:37:12.312Z,98211.91
2022-12-17T18:39:38.837Z,98216.25
2022-12-17T18:42:24.146Z,98224.94
2022-12-17T18:44:50.689Z,98230.00
2022-12-17T18:47:18.780Z,98227.50
2022-12-17T18:49:45.384Z,98232.72
2022-12-17T18:52:16.485Z,98232.88
2022-12-17T18:54:43.705Z,98247.56
2022-12-17T18:57:10.258Z,98247.63
2022-12-17T18:59:37.526Z,98245.16
2022-12-17T19:02:04.567Z,98249.41
2022-12-17T19:04:33.079Z,98252.78
2022-12-17T19:07:00.055Z,98261.34
2022-12-17T19:09:34.328Z,98254.50
2022-12-17T19:12:01.625Z,98265.69
2022-12-17T19:14:28.322Z,98256.25
2022-12-17T19:16:56.211Z,98255.31
2022-12-17T19:19:22.935Z,98256.19
2022-12-17T19:21:51.923Z,98263.06
2022-12-17T19:24:19.662Z,98256.19
2022-12-17T19:26:46.201Z,98260.53
2022-12-17T19:29:14.131Z,98262.28
2022-12-17T19:31:41.335Z,98257.13
2022-12-17T19:34:10.974Z,98253.78
2022-12-17T19:36:38.972Z,98253.78
2022-12-17T19:39:08.177Z,98258.09
2022-12-17T19:41:35.164Z,98262.34
2022-12-17T19:44:04.970Z,98256.38
2022-12-17T19:46:32.771Z,98257.22
2022-12-17T19:48:59.487Z,98260.63
2022-12-17T19:51:28.480Z,98260.63
2022-12-17T19:53:55.893Z,98265.81
2022-12-17T19:56:27.172Z,98268.47
2022-12-17T19:59:00.825Z,98265.88
2022-12-17T20:01:29.885Z,98272.72
2022-12-17T20:03:57.645Z,98271.88
2022-12-17T20:06:29.805Z,98265.03
2022-12-17T20:08:58.708Z,98271.88
2022-12-17T20:11:34.740Z,98268.38
2022-12-17T20:14:16.395Z,98276.13
2022-12-17T20:16:51.729Z,98276.13
2022-12-17T20:19:24.637Z,98276.13
2022-12-17T20:21:51.813Z,98283.78
2022-12-17T20:24:18.965Z,98280.38
2022-12-17T20:26:48.553Z,98276.91
2022-12-17T20:29:15.148Z,98270.91
2022-12-17T20:31:48.051Z,98267.44
2022-12-17T20:34:17.791Z,98268.25
2022-12-17T20:36:45.077Z,98275.09
2022-12-17T20:39:12.456Z,98282.81
2022-12-17T20:41:40.279Z,98277.66
2022-12-17T20:44:10.698Z,98283.66
2022-12-17T20:46:37.633Z,98273.34
2022-12-17T20:49:05.436Z,98284.53
2022-12-17T20:51:33.483Z,98291.34
2022-12-17T20:54:01.444Z,98293.91
2022-12-17T20:56:31.950Z,98299.06
2022-12-17T20:59:02.359Z,98305.03
2022-12-17T21:01:31.326Z,98305.06
2022-12-17T21:03:58.550Z,98308.47
2022-12-17T21:06:32.259Z,98313.69
2022-12-17T21:08:59.335Z,98300.88
2022-12-17T21:11:28.229Z,98306.03
2022-12-17T21:13:56.057Z,98308.59
2022-12-17T21:16:26.098Z,98312.91
2022-12-17T21:18:52.717Z,98309.44
2022-12-17T21:21:22.894Z,98314.69
2022-12-17T21:23:50.145Z,98310.41
2022-12-17T21:26:26.214Z,98306.09
2022-12-17T21:28:54.930Z,98312.09
2022-12-17T21:31:22.838Z,98314.53
2022-12-17T21:33:51.376Z,98312.78
2022-12-17T21:36:20.018Z,98320.50
2022-12-17T21:38:47.233Z,98320.50
2022-12-17T21:41:16.190Z,98318.75
2022-12-17T21:43:42.776Z,98325.63
2022-12-17T21:46:11.034Z,98320.47
2022-12-17T21:48:42.312Z,98314.34
2022-12-17T21:51:11.346Z,98317.78
2022-12-17T21:53:42.140Z,98322.97
2022-12-17T21:56:14.354Z,98319.59
2022-12-17T21:58:42.379Z,98332.47
2022-12-17T22:01:31.598Z,98326.47
2022-12-17T22:03:59.927Z,98331.59
2022-12-17T22:06:32.535Z,98322.19
2022-12-17T22:09:03.748Z,98323.91
2022-12-17T22:11:44.965Z,98326.41
2022-12-17T22:14:18.860Z,98324.66
2022-12-17T22:16:49.586Z,98316.13
2022-12-17T22:19:21.824Z,98317.84
2022-12-17T22:21:50.369Z,98317.00
2022-12-17T22:24:19.932Z,98316.16
2022-12-17T22:26:46.934Z,98320.44
2022-12-17T22:29:37.730Z,98328.97
2022-12-17T22:32:25.034Z,98333.28
2022-12-17T22:35:20.840Z,98333.28
2022-12-17T22:40:55.508Z,98335.84
2022-12-17T22:44:35.059Z,98338.34
2022-12-17T22:44:42.956Z,98348.53
2022-12-17T22:46:17.188Z,98338.19
2022-12-17T22:48:43.926Z,98331.38
2022-12-17T22:51:13.249Z,98339.09
2022-12-17T22:53:46.421Z,98339.06
2022-12-17T22:56:26.076Z,98332.22
2022-12-17T22:59:00.128Z,98336.50
2022-12-17T23:01:27.025Z,98328.78
2022-12-17T23:03:58.112Z,98333.91
2022-12-17T23:06:25.516Z,98339.94
2022-12-17T23:08:52.492Z,98339.19
2022-12-17T23:11:22.059Z,98340.06
2022-12-17T23:13:49.391Z,98345.16
2022-12-17T23:16:16.457Z,98345.22
2022-12-17T23:18:44.892Z,98350.34
2022-12-17T23:21:14.320Z,98340.06
2022-12-17T23:23:41.612Z,98346.84
2022-12-17T23:26:18.816Z,98348.53
2022-12-17T23:28:45.889Z,98351.13
2022-12-17T23:31:18.538Z,98348.63
2022-12-17T23:33:45.418Z,98341.66
2022-12-17T23:36:14.572Z,98335.69
2022-12-17T23:38:42.025Z,98343.41
2022-12-17T23:41:12.111Z,98339.09
2022-12-17T23:43:39.554Z,98339.91
2022-12-17T23:46:07.894Z,98345.06
2022-12-17T23:48:40.750Z,98350.28
2022-12-17T23:51:13.383Z,98345.03
2022-12-17T23:53:40.366Z,98350.19
2022-12-17T23:56:14.436Z,98350.06
2022-12-17T23:58:43.745Z,98346.63
